createdAt,value
2022-08-05T00:00:24.089Z,22.09
2022-08-05T00:03:06.680Z,22.05
2022-08-05T00:06:06.609Z,22.02
2022-08-05T00:08:35.725Z,21.97
2022-08-05T00:11:24.014Z,21.93
2022-08-05T00:13:58.418Z,21.88
2022-08-05T00:16:36.226Z,21.85
2022-08-05T00:19:15.072Z,21.82
2022-08-05T00:21:43.267Z,21.79
2022-08-05T00:24:18.892Z,21.76
2022-08-05T00:26:50.703Z,21.73
2022-08-05T00:29:22.640Z,21.70
2022-08-05T00:32:12.251Z,21.67
2022-08-05T00:35:04.370Z,21.63
2022-08-05T00:37:50.355Z,21.59
2022-08-05T00:40:27.840Z,21.56
2022-08-05T00:42:59.141Z,21.52
2022-08-05T00:45:37.876Z,21.50
2022-08-05T00:48:09.408Z,21.47
2022-08-05T00:50:41.357Z,21.44
2022-08-05T00:54:01.188Z,21.41
2022-08-05T00:56:01.075Z,21.38
2022-08-05T00:58:29.246Z,21.33
2022-08-05T01:00:57.424Z,21.31
2022-08-05T01:03:30.906Z,21.28
2022-08-05T01:06:05.438Z,21.25
2022-08-05T01:08:42.759Z,21.21
2022-08-05T01:11:36.949Z,21.18
2022-08-05T01:14:28.075Z,21.15
2022-08-05T01:17:11.201Z,21.13
2022-08-05T01:20:03.448Z,21.10
2022-08-05T01:23:14.298Z,21.07
2022-08-05T01:26:13.568Z,21.04
2022-08-05T01:29:04.316Z,21.02
2022-08-05T01:31:48.303Z,21.00
2022-08-05T01:34:22.458Z,20.98
2022-08-05T01:37:24.871Z,20.98
2022-08-05T01:39:58.675Z,20.96
2022-08-05T01:42:29.925Z,20.93
2022-08-05T01:45:02.344Z,20.94
2022-08-05T01:47:39.328Z,20.92
2022-08-05T01:50:30.549Z,20.88
2022-08-05T01:53:04.893Z,20.87
2022-08-05T01:55:36.018Z,20.85
2022-08-05T01:58:29.944Z,20.82
2022-08-05T02:00:58.945Z,20.80
2022-08-05T02:03:35.502Z,20.77
2022-08-05T02:06:24.212Z,20.76
2022-08-05T02:08:58.137Z,20.72
2022-08-05T02:11:42.203Z,20.69
2022-08-05T02:14:21.219Z,20.65
2022-08-05T02:16:55.861Z,20.63
2022-08-05T02:19:47.583Z,20.59
2022-08-05T02:22:36.673Z,20.55
2022-08-05T02:25:12.819Z,20.52
2022-08-05T02:27:59.147Z,20.50
2022-08-05T02:30:54.065Z,20.47
2022-08-05T02:33:36.274Z,20.46
2022-08-05T02:36:13.747Z,20.44
2022-08-05T02:38:53.534Z,20.43
2022-08-05T02:41:28.664Z,20.42
2022-08-05T02:44:13.061Z,20.40
2022-08-05T02:46:58.349Z,20.39
2022-08-05T02:49:35.882Z,20.37
2022-08-05T02:52:08.565Z,20.35
2022-08-05T02:54:41.308Z,20.34
2022-08-05T02:58:09.653Z,20.31
2022-08-05T03:00:09.957Z,20.29
2022-08-05T03:02:40.681Z,20.27
2022-08-05T03:05:14.194Z,20.25
2022-08-05T03:08:06.673Z,20.24
2022-08-05T03:10:32.250Z,20.21
2022-08-05T03:15:28.364Z,20.16
2022-08-05T03:17:57.754Z,20.13
2022-08-05T03:20:26.483Z,20.10
2022-08-05T03:22:57.447Z,20.09
2022-08-05T03:25:32.880Z,20.08
2022-08-05T03:28:18.875Z,20.07
2022-08-05T03:30:50.916Z,20.07
2022-08-05T03:33:19.086Z,20.06
2022-08-05T03:35:48.464Z,20.06
2022-08-05T03:38:32.782Z,20.07
2022-08-05T03:41:08.373Z,20.07
2022-08-05T03:44:08.240Z,20.07
2022-08-05T03:46:29.689Z,20.08
2022-08-05T03:48:59.678Z,20.11
2022-08-05T03:52:37.710Z,20.14
2022-08-05T03:55:53.701Z,20.18
2022-08-05T03:57:42.486Z,20.23
2022-08-05T04:00:16.317Z,20.29
2022-08-05T04:02:57.532Z,20.35
2022-08-05T04:05:33.411Z,20.41
2022-08-05T04:08:05.832Z,20.46
2022-08-05T04:10:45.444Z,20.54
2022-08-05T04:13:13.707Z,20.61
2022-08-05T04:15:52.664Z,20.69
2022-08-05T04:18:25.483Z,20.76
2022-08-05T04:20:55.368Z,20.85
2022-08-05T04:24:05.977Z,20.94
2022-08-05T04:26:15.478Z,21.04
2022-08-05T04:28:51.306Z,21.17
2022-08-05T04:31:20.597Z,21.30
2022-08-05T04:34:17.428Z,21.41
2022-08-05T04:36:49.893Z,21.67
2022-08-05T04:39:19.838Z,21.86
2022-08-05T04:41:48.801Z,22.31
2022-08-05T04:44:21.607Z,23.12
2022-08-05T04:46:59.587Z,23.99
2022-08-05T04:49:38.555Z,24.80
2022-08-05T04:52:15.933Z,25.68
2022-08-05T04:54:44.434Z,26.43
2022-08-05T04:57:12.534Z,27.11
2022-08-05T04:59:41.248Z,27.76
2022-08-05T05:02:37.701Z,28.26
2022-08-05T05:05:02.358Z,28.82
2022-08-05T05:07:35.269Z,29.32
2022-08-05T05:10:06.550Z,29.78
2022-08-05T05:12:36.798Z,30.21
2022-08-05T05:15:10.859Z,30.56
2022-08-05T05:17:56.911Z,30.94
2022-08-05T05:20:28.214Z,31.32
2022-08-05T05:22:58.573Z,31.54
2022-08-05T05:25:32.787Z,31.76
2022-08-05T05:28:10.093Z,31.95
2022-08-05T05:30:39.291Z,32.00
2022-08-05T05:33:15.851Z,32.17
2022-08-05T05:35:47.676Z,32.30
2022-08-05T05:38:26.714Z,32.36
2022-08-05T05:40:56.968Z,32.47
2022-08-05T05:43:56.513Z,32.51
2022-08-05T05:46:14.557Z,32.58
2022-08-05T05:48:44.683Z,32.82
2022-08-05T05:51:27.720Z,32.95
2022-08-05T05:53:59.551Z,33.00
2022-08-05T05:56:34.513Z,33.20
2022-08-05T05:59:07.842Z,33.24
2022-08-05T06:01:40.094Z,32.91
2022-08-05T06:04:11.836Z,32.59
2022-08-05T06:06:47.670Z,32.29
2022-08-05T06:09:25.619Z,32.14
2022-08-05T06:12:05.092Z,32.23
2022-08-05T06:14:34.755Z,32.24
2022-08-05T06:17:22.346Z,32.28
2022-08-05T06:19:56.648Z,32.51
2022-08-05T06:22:30.743Z,32.73
2022-08-05T06:25:24.406Z,32.93
2022-08-05T06:28:10.650Z,33.13
2022-08-05T06:30:41.413Z,33.10
2022-08-05T06:33:10.041Z,32.97
2022-08-05T06:36:07.935Z,33.06
2022-08-05T06:38:36.114Z,33.30
2022-08-05T06:41:08.091Z,33.35
2022-08-05T06:43:59.228Z,33.26
2022-08-05T06:46:29.720Z,33.19
2022-08-05T06:49:01.352Z,32.98
2022-08-05T06:51:31.299Z,32.71
2022-08-05T06:54:01.852Z,32.43
2022-08-05T06:56:34.338Z,32.23
2022-08-05T06:59:08.667Z,32.00
2022-08-05T07:01:40.699Z,31.79
2022-08-05T07:04:11.065Z,31.42
2022-08-05T07:06:42.600Z,31.20
2022-08-05T07:09:10.688Z,30.96
2022-08-05T07:11:39.818Z,30.75
2022-08-05T07:14:29.495Z,30.58
2022-08-05T07:18:01.400Z,30.39
2022-08-05T07:20:31.320Z,30.22
2022-08-05T07:22:39.601Z,30.02
2022-08-05T07:25:54.190Z,29.87
2022-08-05T07:28:05.903Z,29.78
2022-08-05T07:30:39.539Z,29.69
2022-08-05T07:33:16.169Z,29.63
2022-08-05T07:36:01.937Z,29.64
2022-08-05T07:38:43.150Z,29.53
2022-08-05T07:42:07.671Z,29.46
2022-08-05T07:44:18.574Z,29.49
2022-08-05T07:46:49.656Z,29.45
2022-08-05T07:49:19.709Z,29.32
2022-08-05T07:51:54.277Z,29.24
2022-08-05T07:54:30.943Z,29.19
2022-08-05T07:57:22.539Z,29.12
2022-08-05T07:59:52.295Z,29.15
2022-08-05T08:02:26.514Z,29.17
2022-08-05T08:04:56.291Z,29.18
2022-08-05T08:07:24.715Z,29.18
2022-08-05T08:09:56.622Z,29.16
2022-08-05T08:12:37.448Z,29.10
2022-08-05T08:15:15.167Z,29.04
2022-08-05T08:17:49.637Z,29.04
2022-08-05T08:21:00.887Z,29.06
2022-08-05T08:23:20.980Z,29.03
2022-08-05T08:26:02.613Z,29.04
2022-08-05T08:28:36.275Z,29.04
2022-08-05T08:31:15.039Z,29.15
2022-08-05T08:33:46.144Z,29.21
2022-08-05T08:36:38.385Z,29.30
2022-08-05T08:39:14.953Z,29.35
2022-08-05T08:42:00.115Z,29.38
2022-08-05T08:45:21.245Z,29.45
2022-08-05T08:48:06.775Z,29.53
2022-08-05T08:50:51.973Z,29.65
2022-08-05T08:53:12.458Z,29.75
2022-08-05T08:56:04.776Z,29.73
2022-08-05T08:58:37.457Z,29.68
2022-08-05T09:01:17.209Z,29.77
2022-08-05T09:03:55.060Z,29.93
2022-08-05T09:06:28.273Z,30.11
2022-08-05T09:09:02.509Z,30.27
2022-08-05T09:11:51.371Z,30.39
2022-08-05T09:14:56.768Z,30.58
2022-08-05T09:17:40.253Z,30.72
2022-08-05T09:20:02.550Z,30.86
2022-08-05T09:23:19.992Z,30.96
2022-08-05T09:26:02.077Z,31.03
2022-08-05T09:28:34.725Z,31.05
2022-08-05T09:31:43.709Z,31.12
2022-08-05T09:34:05.173Z,31.07
2022-08-05T09:36:45.636Z,31.05
2022-08-05T09:39:41.880Z,31.03
2022-08-05T09:42:23.008Z,31.05
2022-08-05T09:44:56.798Z,31.02
2022-08-05T09:47:36.425Z,31.03
2022-08-05T09:50:32.492Z,31.06
2022-08-05T09:53:07.081Z,31.04
2022-08-05T09:55:57.872Z,31.00
2022-08-05T09:58:29.108Z,31.01
2022-08-05T10:01:14.649Z,30.99
2022-08-05T10:04:10.314Z,30.98
2022-08-05T10:06:54.642Z,31.01
2022-08-05T10:09:27.593Z,31.04
2022-08-05T10:12:30.615Z,31.06
2022-08-05T10:15:25.819Z,31.06
2022-08-05T10:18:19.827Z,31.12
2022-08-05T10:20:57.387Z,31.15
2022-08-05T10:23:59.445Z,31.14
2022-08-05T10:26:32.750Z,31.19
2022-08-05T10:29:02.741Z,31.20
2022-08-05T10:32:52.646Z,31.25
2022-08-05T10:34:25.913Z,31.29
2022-08-05T10:36:59.837Z,31.33
2022-08-05T10:40:03.331Z,31.30
2022-08-05T10:42:34.362Z,31.25
2022-08-05T10:45:21.135Z,31.21
2022-08-05T10:48:29.717Z,31.09
2022-08-05T10:51:21.787Z,30.97
2022-08-05T10:53:51.043Z,30.91
2022-08-05T10:56:25.237Z,30.81
2022-08-05T10:58:54.100Z,30.71
2022-08-05T11:01:55.419Z,30.71
2022-08-05T11:04:26.358Z,30.72
2022-08-05T11:06:57.725Z,30.70
2022-08-05T11:09:39.529Z,30.72
2022-08-05T11:12:37.465Z,30.70
2022-08-05T11:16:00.326Z,30.67
2022-08-05T11:18:34.571Z,30.64
2022-08-05T11:21:06.504Z,30.57
2022-08-05T11:24:03.064Z,30.55
2022-08-05T11:26:33.993Z,30.58
2022-08-05T11:29:12.756Z,30.61
2022-08-05T11:31:56.448Z,30.65
2022-08-05T11:34:51.846Z,30.68
2022-08-05T11:38:26.781Z,30.68
2022-08-05T11:41:34.277Z,30.64
2022-08-05T11:44:05.846Z,30.59
2022-08-05T11:47:11.726Z,30.60
2022-08-05T11:49:26.923Z,30.64
2022-08-05T11:51:57.317Z,30.68
2022-08-05T11:54:33.296Z,30.70
2022-08-05T11:57:08.384Z,30.70
2022-08-05T11:59:52.746Z,30.69
2022-08-05T12:02:30.583Z,30.67
2022-08-05T12:05:07.130Z,30.64
2022-08-05T12:08:07.463Z,30.64
2022-08-05T12:10:45.008Z,30.61
2022-08-05T12:13:17.244Z,30.62
2022-08-05T12:15:49.873Z,30.65
2022-08-05T12:18:33.190Z,30.64
2022-08-05T12:21:30.037Z,30.64
2022-08-05T12:24:10.731Z,30.66
2022-08-05T12:26:44.361Z,30.65
2022-08-05T12:29:17.922Z,30.69
2022-08-05T12:31:53.511Z,30.64
2022-08-05T12:34:28.636Z,30.64
2022-08-05T12:37:03.362Z,30.61
2022-08-05T12:39:37.519Z,30.60
2022-08-05T12:42:18.195Z,30.62
2022-08-05T12:44:48.109Z,30.65
2022-08-05T12:47:30.553Z,30.68
2022-08-05T12:50:03.836Z,30.69
2022-08-05T12:52:39.190Z,30.69
2022-08-05T12:55:26.548Z,30.72
2022-08-05T12:58:49.459Z,30.76
2022-08-05T13:02:01.010Z,30.78
2022-08-05T13:03:43.089Z,30.80
2022-08-05T13:06:18.017Z,30.82
2022-08-05T13:08:51.931Z,30.83
2022-08-05T13:12:02.589Z,30.83
2022-08-05T13:14:24.776Z,30.80
2022-08-05T13:17:20.566Z,30.73
2022-08-05T13:20:20.338Z,30.74
2022-08-05T13:22:53.391Z,30.76
2022-08-05T13:25:21.977Z,30.79
2022-08-05T13:28:10.554Z,30.82
2022-08-05T13:30:39.353Z,30.84
2022-08-05T13:33:07.633Z,30.85
2022-08-05T13:35:47.138Z,30.89
2022-08-05T13:38:30.362Z,30.89
2022-08-05T13:41:00.433Z,30.84
2022-08-05T13:43:44.366Z,30.76
2022-08-05T13:46:26.485Z,30.71
2022-08-05T13:49:10.305Z,30.66
2022-08-05T13:51:46.438Z,30.62
2022-08-05T13:54:16.699Z,30.60
2022-08-05T13:56:51.081Z,30.57
2022-08-05T13:59:24.451Z,30.57
2022-08-05T14:02:00.173Z,30.58
2022-08-05T14:04:53.941Z,30.60
2022-08-05T14:07:59.705Z,30.65
2022-08-05T14:10:29.010Z,30.73
2022-08-05T14:12:59.763Z,30.78
2022-08-05T14:16:08.319Z,30.81
2022-08-05T14:18:18.224Z,30.84
2022-08-05T14:20:54.931Z,30.84
2022-08-05T14:23:25.885Z,30.82
2022-08-05T14:25:58.773Z,30.83
2022-08-05T14:28:29.879Z,30.82
2022-08-05T14:31:00.511Z,30.81
2022-08-05T14:33:32.637Z,30.78
2022-08-05T14:36:21.412Z,30.77
2022-08-05T14:38:51.488Z,30.76
2022-08-05T14:41:20.320Z,30.75
2022-08-05T14:44:01.511Z,30.74
2022-08-05T14:46:35.067Z,30.74
2022-08-05T14:49:06.285Z,30.76
2022-08-05T14:51:42.480Z,30.80
2022-08-05T14:54:28.599Z,30.85
2022-08-05T14:56:59.692Z,30.87
2022-08-05T14:59:29.454Z,30.85
2022-08-05T15:01:58.373Z,30.85
2022-08-05T15:04:29.191Z,30.87
2022-08-05T15:06:57.634Z,30.90
2022-08-05T15:09:51.224Z,30.92
2022-08-05T15:12:16.775Z,30.92
2022-08-05T15:14:50.301Z,30.90
2022-08-05T15:17:46.815Z,30.86
2022-08-05T15:20:18.568Z,30.81
2022-08-05T15:22:54.171Z,30.79
2022-08-05T15:25:41.170Z,30.75
2022-08-05T15:28:15.674Z,30.71
2022-08-05T15:30:45.889Z,30.65
2022-08-05T15:33:56.655Z,30.63
2022-08-05T15:36:05.550Z,30.56
2022-08-05T15:38:41.067Z,30.42
2022-08-05T15:41:22.121Z,30.35
2022-08-05T15:43:54.697Z,30.29
2022-08-05T15:46:24.833Z,30.18
2022-08-05T15:48:58.827Z,30.12
2022-08-05T15:52:10.052Z,30.07
2022-08-05T15:54:18.579Z,30.03
2022-08-05T15:56:46.648Z,30.00
2022-08-05T15:59:21.848Z,29.97
2022-08-05T16:01:53.698Z,29.95
2022-08-05T16:04:25.130Z,29.91
2022-08-05T16:06:55.785Z,29.88
2022-08-05T16:09:25.003Z,29.84
2022-08-05T16:11:54.263Z,29.80
2022-08-05T16:14:23.192Z,29.76
2022-08-05T16:16:51.242Z,29.72
2022-08-05T16:20:02.902Z,29.67
2022-08-05T16:22:10.862Z,29.63
2022-08-05T16:24:51.265Z,29.59
2022-08-05T16:27:47.450Z,29.57
2022-08-05T16:30:23.336Z,29.52
2022-08-05T16:32:54.881Z,29.48
2022-08-05T16:35:27.877Z,29.46
2022-08-05T16:38:02.846Z,29.44
2022-08-05T16:40:52.098Z,29.42
2022-08-05T16:43:25.870Z,29.41
2022-08-05T16:46:04.070Z,29.39
2022-08-05T16:48:37.939Z,29.37
2022-08-05T16:51:09.143Z,29.34
2022-08-05T16:54:05.613Z,29.31
2022-08-05T16:56:31.293Z,29.27
2022-08-05T16:59:07.681Z,29.24
2022-08-05T17:01:54.024Z,29.21
2022-08-05T17:04:26.008Z,29.14
2022-08-05T17:07:00.198Z,29.12
2022-08-05T17:09:30.572Z,29.10
2022-08-05T17:12:07.887Z,29.08
2022-08-05T17:14:39.841Z,29.06
2022-08-05T17:17:14.299Z,29.03
2022-08-05T17:19:45.322Z,29.02
2022-08-05T17:22:17.828Z,28.99
2022-08-05T17:24:58.787Z,28.96
2022-08-05T17:27:33.882Z,28.93
2022-08-05T17:30:11.989Z,28.90
2022-08-05T17:32:47.088Z,28.85
2022-08-05T17:35:20.564Z,28.79
2022-08-05T17:37:50.615Z,28.74
2022-08-05T17:40:22.667Z,28.69
2022-08-05T17:42:53.192Z,28.64
2022-08-05T17:45:25.109Z,28.58
2022-08-05T17:47:57.873Z,28.52
2022-08-05T17:50:30.319Z,28.44
2022-08-05T17:53:00.930Z,28.37
2022-08-05T17:55:37.479Z,28.30
2022-08-05T17:58:12.163Z,28.23
2022-08-05T18:00:47.218Z,28.17
2022-08-05T18:03:48.469Z,28.12
2022-08-05T18:06:12.215Z,28.06
2022-08-05T18:08:52.459Z,28.00
2022-08-05T18:11:24.418Z,27.92
2022-08-05T18:14:03.556Z,27.85
2022-08-05T18:16:46.990Z,27.77
2022-08-05T18:19:23.076Z,27.69
2022-08-05T18:22:07.702Z,27.61
2022-08-05T18:24:39.602Z,27.52
2022-08-05T18:27:18.126Z,27.44
2022-08-05T18:29:53.513Z,27.36
2022-08-05T18:32:27.829Z,27.27
2022-08-05T18:34:57.998Z,27.18
2022-08-05T18:37:34.265Z,27.12
2022-08-05T18:41:50.715Z,27.02
2022-08-05T18:43:01.157Z,26.91
2022-08-05T18:45:41.710Z,26.82
2022-08-05T18:48:11.393Z,26.75
2022-08-05T18:51:01.750Z,26.69
2022-08-05T18:53:50.495Z,26.63
2022-08-05T18:56:21.771Z,26.57
2022-08-05T18:58:54.964Z,26.52
2022-08-05T19:01:47.611Z,26.47
2022-08-05T19:04:24.168Z,26.42
2022-08-05T19:06:53.574Z,26.38
2022-08-05T19:09:22.097Z,26.35
2022-08-05T19:12:00.210Z,26.30
2022-08-05T19:14:44.425Z,26.29
2022-08-05T19:17:19.695Z,26.27
2022-08-05T19:19:50.326Z,26.25
2022-08-05T19:22:18.903Z,26.15
2022-08-05T19:24:54.267Z,25.97
2022-08-05T19:27:27.703Z,25.77
2022-08-05T19:29:57.557Z,25.62
2022-08-05T19:32:26.329Z,25.46
2022-08-05T19:34:56.932Z,25.30
2022-08-05T19:37:29.736Z,25.16
2022-08-05T19:40:10.138Z,25.03
2022-08-05T19:42:39.044Z,24.86
2022-08-05T19:45:08.454Z,24.71
2022-08-05T19:47:42.618Z,24.56
2022-08-05T19:50:11.934Z,24.44
2022-08-05T19:52:40.875Z,24.31
2022-08-05T19:56:13.768Z,24.18
2022-08-05T19:58:14.566Z,24.05
2022-08-05T20:00:46.496Z,23.93
2022-08-05T20:03:14.620Z,23.82
2022-08-05T20:05:49.955Z,23.74
2022-08-05T20:08:19.781Z,23.65
2022-08-05T20:10:49.714Z,23.55
2022-08-05T20:13:30.380Z,23.48
2022-08-05T20:16:07.169Z,23.40
2022-08-05T20:18:36.133Z,23.34
2022-08-05T20:21:06.661Z,23.26
2022-08-05T20:23:39.987Z,23.22
2022-08-05T20:26:21.813Z,23.17
2022-08-05T20:28:55.783Z,23.12
2022-08-05T20:31:42.785Z,23.08
2022-08-05T20:34:16.406Z,23.03
2022-08-05T20:36:45.017Z,22.97
2022-08-05T20:39:16.313Z,22.90
2022-08-05T20:41:47.736Z,22.80
2022-08-05T20:44:28.927Z,22.71
2022-08-05T20:47:01.250Z,22.62
2022-08-05T20:49:29.469Z,22.54
2022-08-05T20:52:01.267Z,22.46
2022-08-05T20:54:42.725Z,22.40
2022-08-05T20:57:14.366Z,22.33
2022-08-05T21:00:10.521Z,22.27
2022-08-05T21:02:30.913Z,22.18
2022-08-05T21:05:02.393Z,22.12
2022-08-05T21:07:50.688Z,22.06
2022-08-05T21:10:18.667Z,21.98
2022-08-05T21:13:08.812Z,21.91
2022-08-05T21:15:35.929Z,21.86
2022-08-05T21:18:04.397Z,21.80
2022-08-05T21:20:33.635Z,21.75
2022-08-05T21:23:03.112Z,21.72
2022-08-05T21:25:33.892Z,21.69
2022-08-05T21:28:03.408Z,21.64
2022-08-05T21:30:31.914Z,21.58
2022-08-05T21:33:01.568Z,21.47
2022-08-05T21:35:55.930Z,21.37
2022-08-05T21:38:19.353Z,21.23
2022-08-05T21:40:47.496Z,21.10
2022-08-05T21:43:17.667Z,20.99
2022-08-05T21:45:57.462Z,20.86
2022-08-05T21:48:29.375Z,20.77
2022-08-05T21:51:00.104Z,20.68
2022-08-05T21:53:28.116Z,20.60
2022-08-05T21:56:06.301Z,20.55
2022-08-05T21:58:57.050Z,20.50
2022-08-05T22:01:26.595Z,20.46
2022-08-05T22:03:54.737Z,20.41
2022-08-05T22:06:35.110Z,20.37
2022-08-05T22:09:14.025Z,20.34
2022-08-05T22:11:46.708Z,20.32
2022-08-05T22:14:35.106Z,20.29
2022-08-05T22:17:06.807Z,20.26
2022-08-05T22:20:03.332Z,20.25
2022-08-05T22:22:26.613Z,20.23
2022-08-05T22:25:18.067Z,20.23
2022-08-05T22:28:09.354Z,20.21
2022-08-05T22:30:55.597Z,20.19
2022-08-05T22:33:58.041Z,20.18
2022-08-05T22:36:17.437Z,20.17
2022-08-05T22:38:48.112Z,20.14
2022-08-05T22:41:26.492Z,20.13
2022-08-05T22:44:09.565Z,20.13
2022-08-05T22:46:41.354Z,20.12
2022-08-05T22:49:23.020Z,20.11
2022-08-05T22:52:06.926Z,20.11
2022-08-05T22:54:36.568Z,20.11
2022-08-05T22:57:06.378Z,20.11
2022-08-05T22:59:45.915Z,20.12
2022-08-05T23:02:28.817Z,20.11
2022-08-05T23:05:01.933Z,20.13
2022-08-05T23:07:44.807Z,20.15
2022-08-05T23:10:14.951Z,20.15
2022-08-05T23:12:43.769Z,20.15
2022-08-05T23:15:12.281Z,20.14
2022-08-05T23:18:00.609Z,20.13
2022-08-05T23:20:28.325Z,20.11
2022-08-05T23:22:58.794Z,20.09
2022-08-05T23:25:51.409Z,20.08
2022-08-05T23:28:17.194Z,20.07
2022-08-05T23:30:53.373Z,20.06
2022-08-05T23:33:26.156Z,20.04
2022-08-05T23:36:13.644Z,20.04
2022-08-05T23:38:43.683Z,20.00
2022-08-05T23:41:11.903Z,19.98
2022-08-05T23:44:04.483Z,19.96
2022-08-05T23:46:29.010Z,19.93
2022-08-05T23:48:59.912Z,19.91
2022-08-05T23:51:53.335Z,19.89
2022-08-05T23:54:25.893Z,19.87
2022-08-05T23:57:04.011Z,19.85
